Terminal Aerodrome Forecast
Issued by NWS

Home | Current Version | Previous Version | Text Only | Print | Product List | Glossary On
Versions: 1 2 3 4 5 6 7 8 9 10 11 12 13 14 15 16 17 18 19 20 21 22 23 24 25 26 27 28 29 30 31
000
FTUS41 KALY 302300
TAFPSF
TAF
KPSF 302320Z 3100/3124 22005KT P6SM SCT050 SCT100
     FM310300 00000KT P6SM VCSH SCT050 BKN100
      TEMPO 3106/3110 3SM BR
     FM311200 22005KT P6SM VCSH BKN040 PROB30 3112/3118 3SM TSRA
      OVC030CB
     FM312100 22007KT P6SM SCT045 SCT100=

USA.gov is the U.S. government's official web portal to all federal, state and local government web resources and services.